sensor_id;sensor_type;location;lat;lon;timestamp;temperature;humidity
30473;DHT22;17263;48.160;11.452;2024-01-30T00:00:05;0.20;99.90
30473;DHT22;17263;48.160;11.452;2024-01-30T00:02:32;0.20;99.90
30473;DHT22;17263;48.160;11.452;2024-01-30T00:04:58;0.20;99.90
30473;DHT22;17263;48.160;11.452;2024-01-30T00:07:24;0.20;99.90
30473;DHT22;17263;48.160;11.452;2024-01-30T00:09:50;0.20;99.90
30473;DHT22;17263;48.160;11.452;2024-01-30T00:12:16;0.10;99.90
30473;DHT22;17263;48.160;11.452;2024-01-30T00:14:42;0.10;99.90
30473;DHT22;17263;48.160;11.452;2024-01-30T00:17:11;0.10;99.90
30473;DHT22;17263;48.160;11.452;2024-01-30T00:19:37;0.10;99.90
30473;DHT22;17263;48.160;11.452;2024-01-30T00:22:03;0.10;99.90
30473;DHT22;17263;48.160;11.452;2024-01-30T00:24:29;0.10;99.90
30473;DHT22;17263;48.160;11.452;2024-01-30T00:26:55;0.10;99.90
30473;DHT22;17263;48.160;11.452;2024-01-30T00:29:21;0.10;99.90
30473;DHT22;17263;48.160;11.452;2024-01-30T00:31:48;0.10;99.90
30473;DHT22;17263;48.160;11.452;2024-01-30T00:34:14;0.00;99.90
30473;DHT22;17263;48.160;11.452;2024-01-30T00:36:40;0.10;99.90
30473;DHT22;17263;48.160;11.452;2024-01-30T00:39:06;0.00;99.90
30473;DHT22;17263;48.160;11.452;2024-01-30T00:41:34;0.00;99.90
30473;DHT22;17263;48.160;11.452;2024-01-30T00:44:00;0.00;99.90
30473;DHT22;17263;48.160;11.452;2024-01-30T00:46:26;0.00;99.90
30473;DHT22;17263;48.160;11.452;2024-01-30T00:48:52;0.10;99.90
30473;DHT22;17263;48.160;11.452;2024-01-30T00:51:18;0.00;99.90
30473;DHT22;17263;48.160;11.452;2024-01-30T00:53:45;0.00;99.90
30473;DHT22;17263;48.160;11.452;2024-01-30T00:56:11;0.00;99.90
30473;DHT22;17263;48.160;11.452;2024-01-30T00:58:37;0.00;99.90
30473;DHT22;17263;48.160;11.452;2024-01-30T01:01:03;0.00;99.90
30473;DHT22;17263;48.160;11.452;2024-01-30T01:03:29;0.00;99.90
30473;DHT22;17263;48.160;11.452;2024-01-30T01:05:55;0.00;99.90
30473;DHT22;17263;48.160;11.452;2024-01-30T01:08:21;0.10;99.90
30473;DHT22;17263;48.160;11.452;2024-01-30T01:10:47;0.00;99.90
30473;DHT22;17263;48.160;11.452;2024-01-30T01:13:13;0.10;99.90
30473;DHT22;17263;48.160;11.452;2024-01-30T01:15:39;0.10;99.90
30473;DHT22;17263;48.160;11.452;2024-01-30T01:18:05;0.10;99.90
30473;DHT22;17263;48.160;11.452;2024-01-30T01:20:31;0.10;99.90
30473;DHT22;17263;48.160;11.452;2024-01-30T01:22:57;0.10;99.90
30473;DHT22;17263;48.160;11.452;2024-01-30T01:25:23;0.10;99.90
30473;DHT22;17263;48.160;11.452;2024-01-30T01:27:50;0.00;99.90
30473;DHT22;17263;48.160;11.452;2024-01-30T01:30:18;0.00;99.90
30473;DHT22;17263;48.160;11.452;2024-01-30T01:32:48;0.00;99.90
30473;DHT22;17263;48.160;11.452;2024-01-30T01:35:24;0.00;99.90
30473;DHT22;17263;48.160;11.452;2024-01-30T01:37:51;-0.10;99.90
30473;DHT22;17263;48.160;11.452;2024-01-30T01:40:26;0.00;99.90
30473;DHT22;17263;48.160;11.452;2024-01-30T01:42:52;-0.10;99.90
30473;DHT22;17263;48.160;11.452;2024-01-30T01:45:19;-0.10;99.90
30473;DHT22;17263;48.160;11.452;2024-01-30T01:47:48;-0.10;99.90
30473;DHT22;17263;48.160;11.452;2024-01-30T01:50:16;-0.10;99.90
30473;DHT22;17263;48.160;11.452;2024-01-30T01:52:50;-0.10;99.90
30473;DHT22;17263;48.160;11.452;2024-01-30T01:55:17;-0.10;99.90
30473;DHT22;17263;48.160;11.452;2024-01-30T01:57:44;-0.20;99.90
30473;DHT22;17263;48.160;11.452;2024-01-30T02:00:12;-0.10;99.90
30473;DHT22;17263;48.160;11.452;2024-01-30T02:02:39;-0.10;99.90
30473;DHT22;17263;48.160;11.452;2024-01-30T02:05:05;-0.10;99.90
30473;DHT22;17263;48.160;11.452;2024-01-30T02:07:31;-0.10;99.90
30473;DHT22;17263;48.160;11.452;2024-01-30T02:09:57;-0.10;99.90
30473;DHT22;17263;48.160;11.452;2024-01-30T02:12:23;-0.10;99.90
30473;DHT22;17263;48.160;11.452;2024-01-30T02:14:50;-0.10;99.90
30473;DHT22;17263;48.160;11.452;2024-01-30T02:17:16;-0.10;99.90
30473;DHT22;17263;48.160;11.452;2024-01-30T02:19:42;-0.20;99.90
30473;DHT22;17263;48.160;11.452;2024-01-30T02:22:09;-0.20;99.90
30473;DHT22;17263;48.160;11.452;2024-01-30T02:24:35;-0.20;99.90
30473;DHT22;17263;48.160;11.452;2024-01-30T02:27:01;-0.20;99.90
30473;DHT22;17263;48.160;11.452;2024-01-30T02:29:27;-0.20;99.90
30473;DHT22;17263;48.160;11.452;2024-01-30T02:31:53;-0.20;99.90
30473;DHT22;17263;48.160;11.452;2024-01-30T02:34:20;-0.20;99.90
30473;DHT22;17263;48.160;11.452;2024-01-30T02:36:46;-0.20;99.90
30473;DHT22;17263;48.160;11.452;2024-01-30T02:39:12;-0.20;99.90
30473;DHT22;17263;48.160;11.452;2024-01-30T02:41:38;-0.30;99.90
30473;DHT22;17263;48.160;11.452;2024-01-30T02:44:04;-0.30;99.90
30473;DHT22;17263;48.160;11.452;2024-01-30T02:46:30;-0.30;99.90
30473;DHT22;17263;48.160;11.452;2024-01-30T02:48:56;-0.30;99.90
30473;DHT22;17263;48.160;11.452;2024-01-30T02:51:22;-0.30;99.90
30473;DHT22;17263;48.160;11.452;2024-01-30T02:53:48;-0.30;99.90
30473;DHT22;17263;48.160;11.452;2024-01-30T02:56:15;-0.30;99.90
30473;DHT22;17263;48.160;11.452;2024-01-30T02:58:41;-0.30;99.90
30473;DHT22;17263;48.160;11.452;2024-01-30T03:01:07;-0.30;99.90
30473;DHT22;17263;48.160;11.452;2024-01-30T03:03:33;-0.30;99.90
30473;DHT22;17263;48.160;11.452;2024-01-30T03:06:02;-0.30;99.90
30473;DHT22;17263;48.160;11.452;2024-01-30T03:08:28;-0.30;99.90
30473;DHT22;17263;48.160;11.452;2024-01-30T03:10:54;-0.30;99.90
30473;DHT22;17263;48.160;11.452;2024-01-30T03:13:21;-0.30;99.90
30473;DHT22;17263;48.160;11.452;2024-01-30T03:15:47;-0.30;99.90
30473;DHT22;17263;48.160;11.452;2024-01-30T03:18:13;-0.30;99.90
30473;DHT22;17263;48.160;11.452;2024-01-30T03:20:39;-0.40;99.90
30473;DHT22;17263;48.160;11.452;2024-01-30T03:23:05;-0.40;99.90
30473;DHT22;17263;48.160;11.452;2024-01-30T03:25:31;-0.40;99.90
30473;DHT22;17263;48.160;11.452;2024-01-30T03:27:57;-0.40;99.90
30473;DHT22;17263;48.160;11.452;2024-01-30T03:30:23;-0.30;99.90
30473;DHT22;17263;48.160;11.452;2024-01-30T03:32:49;-0.30;99.90
30473;DHT22;17263;48.160;11.452;2024-01-30T03:35:16;-0.30;99.90
30473;DHT22;17263;48.160;11.452;2024-01-30T03:37:42;-0.20;99.90
30473;DHT22;17263;48.160;11.452;2024-01-30T03:40:08;-0.20;99.90
30473;DHT22;17263;48.160;11.452;2024-01-30T03:42:34;-0.30;99.90
30473;DHT22;17263;48.160;11.452;2024-01-30T03:45:01;-0.30;99.90
30473;DHT22;17263;48.160;11.452;2024-01-30T03:47:27;-0.30;99.90
30473;DHT22;17263;48.160;11.452;2024-01-30T03:49:53;-0.40;99.90
30473;DHT22;17263;48.160;11.452;2024-01-30T03:52:19;-0.40;99.90
30473;DHT22;17263;48.160;11.452;2024-01-30T03:54:45;-0.40;99.90
30473;DHT22;17263;48.160;11.452;2024-01-30T03:57:11;-0.40;99.90
30473;DHT22;17263;48.160;11.452;2024-01-30T03:59:37;-0.40;99.90
30473;DHT22;17263;48.160;11.452;2024-01-30T04:02:03;-0.40;99.90
30473;DHT22;17263;48.160;11.452;2024-01-30T04:04:30;-0.40;99.90
30473;DHT22;17263;48.160;11.452;2024-01-30T04:06:56;-0.40;99.90
30473;DHT22;17263;48.160;11.452;2024-01-30T04:09:22;-0.40;99.90
30473;DHT22;17263;48.160;11.452;2024-01-30T04:11:48;-0.40;99.90
30473;DHT22;17263;48.160;11.452;2024-01-30T04:14:14;-0.40;99.90
30473;DHT22;17263;48.160;11.452;2024-01-30T04:16:40;-0.40;99.90
30473;DHT22;17263;48.160;11.452;2024-01-30T04:19:06;-0.50;99.90
30473;DHT22;17263;48.160;11.452;2024-01-30T04:21:32;-0.40;99.90
30473;DHT22;17263;48.160;11.452;2024-01-30T04:23:58;-0.40;99.90
30473;DHT22;17263;48.160;11.452;2024-01-30T04:26:24;-0.40;99.90
30473;DHT22;17263;48.160;11.452;2024-01-30T04:28:50;-0.50;99.90
30473;DHT22;17263;48.160;11.452;2024-01-30T04:31:16;-0.50;99.90
30473;DHT22;17263;48.160;11.452;2024-01-30T04:33:42;-0.50;99.90
30473;DHT22;17263;48.160;11.452;2024-01-30T04:36:09;-0.50;99.90
30473;DHT22;17263;48.160;11.452;2024-01-30T04:38:41;-0.50;99.90
30473;DHT22;17263;48.160;11.452;2024-01-30T04:41:07;-0.50;99.90
30473;DHT22;17263;48.160;11.452;2024-01-30T04:43:33;-0.50;99.90
30473;DHT22;17263;48.160;11.452;2024-01-30T04:45:59;-0.50;99.90
30473;DHT22;17263;48.160;11.452;2024-01-30T04:48:25;-0.50;99.90
30473;DHT22;17263;48.160;11.452;2024-01-30T04:50:51;-0.60;99.90
30473;DHT22;17263;48.160;11.452;2024-01-30T04:53:17;-0.50;99.90
30473;DHT22;17263;48.160;11.452;2024-01-30T04:55:43;-0.50;99.90
30473;DHT22;17263;48.160;11.452;2024-01-30T04:58:09;-0.50;99.90
30473;DHT22;17263;48.160;11.452;2024-01-30T05:00:35;-0.50;99.90
30473;DHT22;17263;48.160;11.452;2024-01-30T05:03:01;-0.50;99.90
30473;DHT22;17263;48.160;11.452;2024-01-30T05:05:27;-0.60;99.90
30473;DHT22;17263;48.160;11.452;2024-01-30T05:07:53;-0.60;99.90
30473;DHT22;17263;48.160;11.452;2024-01-30T05:10:19;-0.60;99.90
30473;DHT22;17263;48.160;11.452;2024-01-30T05:12:45;-0.60;99.90
30473;DHT22;17263;48.160;11.452;2024-01-30T05:15:11;-0.60;99.90
30473;DHT22;17263;48.160;11.452;2024-01-30T05:17:37;-0.70;99.90
30473;DHT22;17263;48.160;11.452;2024-01-30T05:20:03;-0.70;99.90
30473;DHT22;17263;48.160;11.452;2024-01-30T05:22:30;-0.70;99.90
30473;DHT22;17263;48.160;11.452;2024-01-30T05:24:56;-0.70;99.90
30473;DHT22;17263;48.160;11.452;2024-01-30T05:27:22;-0.70;99.90
30473;DHT22;17263;48.160;11.452;2024-01-30T05:29:48;-0.70;99.90
30473;DHT22;17263;48.160;11.452;2024-01-30T05:32:15;-0.70;99.90
30473;DHT22;17263;48.160;11.452;2024-01-30T05:34:41;-0.70;99.90
30473;DHT22;17263;48.160;11.452;2024-01-30T05:37:07;-0.70;99.90
30473;DHT22;17263;48.160;11.452;2024-01-30T05:39:33;-0.70;99.90
30473;DHT22;17263;48.160;11.452;2024-01-30T05:41:59;-0.70;99.90
30473;DHT22;17263;48.160;11.452;2024-01-30T05:44:25;-0.70;99.90
30473;DHT22;17263;48.160;11.452;2024-01-30T05:46:51;-0.70;99.90
30473;DHT22;17263;48.160;11.452;2024-01-30T05:49:17;-0.70;99.90
30473;DHT22;17263;48.160;11.452;2024-01-30T05:51:43;-0.70;99.90
30473;DHT22;17263;48.160;11.452;2024-01-30T05:54:10;-0.70;99.90
30473;DHT22;17263;48.160;11.452;2024-01-30T05:56:36;-0.70;99.90
30473;DHT22;17263;48.160;11.452;2024-01-30T05:59:02;-0.70;99.90
30473;DHT22;17263;48.160;11.452;2024-01-30T06:01:28;-0.70;99.90
30473;DHT22;17263;48.160;11.452;2024-01-30T06:03:55;-0.70;99.90
30473;DHT22;17263;48.160;11.452;2024-01-30T06:06:21;-0.70;99.90
30473;DHT22;17263;48.160;11.452;2024-01-30T06:08:47;-0.80;99.90
30473;DHT22;17263;48.160;11.452;2024-01-30T06:11:13;-0.80;99.90
30473;DHT22;17263;48.160;11.452;2024-01-30T06:13:39;-0.70;99.90
30473;DHT22;17263;48.160;11.452;2024-01-30T06:16:09;-0.70;99.90
30473;DHT22;17263;48.160;11.452;2024-01-30T06:18:35;-0.80;99.90
30473;DHT22;17263;48.160;11.452;2024-01-30T06:21:01;-0.80;99.90
30473;DHT22;17263;48.160;11.452;2024-01-30T06:23:27;-0.80;99.90
30473;DHT22;17263;48.160;11.452;2024-01-30T06:25:53;-0.70;99.90
30473;DHT22;17263;48.160;11.452;2024-01-30T06:28:19;-0.70;99.90
30473;DHT22;17263;48.160;11.452;2024-01-30T06:30:45;-0.70;99.90
30473;DHT22;17263;48.160;11.452;2024-01-30T06:33:12;-0.70;99.90
30473;DHT22;17263;48.160;11.452;2024-01-30T06:35:40;-0.60;99.90
30473;DHT22;17263;48.160;11.452;2024-01-30T06:38:06;-0.60;99.90
30473;DHT22;17263;48.160;11.452;2024-01-30T06:40:32;-0.60;99.90
30473;DHT22;17263;48.160;11.452;2024-01-30T06:42:58;-0.60;99.90
30473;DHT22;17263;48.160;11.452;2024-01-30T06:45:24;-0.60;99.90
30473;DHT22;17263;48.160;11.452;2024-01-30T06:47:50;-0.60;99.90
30473;DHT22;17263;48.160;11.452;2024-01-30T06:50:16;-0.60;99.90
30473;DHT22;17263;48.160;11.452;2024-01-30T06:52:42;-0.60;99.90
30473;DHT22;17263;48.160;11.452;2024-01-30T06:55:08;-0.60;99.90
30473;DHT22;17263;48.160;11.452;2024-01-30T06:57:34;-0.60;99.90
30473;DHT22;17263;48.160;11.452;2024-01-30T07:00:00;-0.60;99.90
30473;DHT22;17263;48.160;11.452;2024-01-30T07:02:26;-0.60;99.90
30473;DHT22;17263;48.160;11.452;2024-01-30T07:04:52;-0.60;99.90
30473;DHT22;17263;48.160;11.452;2024-01-30T07:07:18;-0.60;99.90
30473;DHT22;17263;48.160;11.452;2024-01-30T07:09:45;-0.50;99.90
30473;DHT22;17263;48.160;11.452;2024-01-30T07:12:11;-0.50;99.90
30473;DHT22;17263;48.160;11.452;2024-01-30T07:14:37;-0.50;99.90
30473;DHT22;17263;48.160;11.452;2024-01-30T07:17:03;-0.50;99.90
30473;DHT22;17263;48.160;11.452;2024-01-30T07:19:29;-0.40;99.90
30473;DHT22;17263;48.160;11.452;2024-01-30T07:21:55;-0.40;99.90
30473;DHT22;17263;48.160;11.452;2024-01-30T07:24:21;-0.40;99.90
30473;DHT22;17263;48.160;11.452;2024-01-30T07:26:47;-0.30;99.90
30473;DHT22;17263;48.160;11.452;2024-01-30T07:29:13;-0.30;99.90
30473;DHT22;17263;48.160;11.452;2024-01-30T07:31:39;-0.30;99.90
30473;DHT22;17263;48.160;11.452;2024-01-30T07:34:06;-0.20;99.90
30473;DHT22;17263;48.160;11.452;2024-01-30T07:36:32;-0.20;99.90
30473;DHT22;17263;48.160;11.452;2024-01-30T07:38:58;-0.10;99.90
30473;DHT22;17263;48.160;11.452;2024-01-30T07:41:24;0.00;99.90
30473;DHT22;17263;48.160;11.452;2024-01-30T07:43:51;0.00;99.90
30473;DHT22;17263;48.160;11.452;2024-01-30T07:46:18;0.10;99.90
30473;DHT22;17263;48.160;11.452;2024-01-30T07:48:44;0.20;99.90
30473;DHT22;17263;48.160;11.452;2024-01-30T07:51:10;0.30;99.90
30473;DHT22;17263;48.160;11.452;2024-01-30T07:53:36;0.40;99.90
30473;DHT22;17263;48.160;11.452;2024-01-30T07:56:02;0.40;99.90
30473;DHT22;17263;48.160;11.452;2024-01-30T07:58:28;0.50;99.90
30473;DHT22;17263;48.160;11.452;2024-01-30T08:00:54;0.50;99.90
30473;DHT22;17263;48.160;11.452;2024-01-30T08:03:22;0.60;99.90
30473;DHT22;17263;48.160;11.452;2024-01-30T08:05:48;0.60;99.90
30473;DHT22;17263;48.160;11.452;2024-01-30T08:08:14;0.70;99.90
30473;DHT22;17263;48.160;11.452;2024-01-30T08:10:43;0.80;99.90
30473;DHT22;17263;48.160;11.452;2024-01-30T08:13:09;0.90;99.90
30473;DHT22;17263;48.160;11.452;2024-01-30T08:15:35;1.10;99.90
30473;DHT22;17263;48.160;11.452;2024-01-30T08:18:01;1.30;99.90
30473;DHT22;17263;48.160;11.452;2024-01-30T08:20:27;1.60;99.90
30473;DHT22;17263;48.160;11.452;2024-01-30T08:22:53;1.90;99.90
30473;DHT22;17263;48.160;11.452;2024-01-30T08:25:19;2.10;99.90
30473;DHT22;17263;48.160;11.452;2024-01-30T08:27:45;2.30;99.90
30473;DHT22;17263;48.160;11.452;2024-01-30T08:30:11;2.30;99.90
30473;DHT22;17263;48.160;11.452;2024-01-30T08:32:37;2.30;99.90
30473;DHT22;17263;48.160;11.452;2024-01-30T08:35:03;2.30;99.90
30473;DHT22;17263;48.160;11.452;2024-01-30T08:37:30;2.40;99.90
30473;DHT22;17263;48.160;11.452;2024-01-30T08:39:56;2.60;99.90
30473;DHT22;17263;48.160;11.452;2024-01-30T08:42:22;2.70;99.90
30473;DHT22;17263;48.160;11.452;2024-01-30T08:44:49;3.00;99.90
30473;DHT22;17263;48.160;11.452;2024-01-30T08:47:17;3.60;99.90
30473;DHT22;17263;48.160;11.452;2024-01-30T08:49:44;4.30;99.90
30473;DHT22;17263;48.160;11.452;2024-01-30T08:52:11;4.80;99.90
30473;DHT22;17263;48.160;11.452;2024-01-30T08:54:37;5.30;99.90
30473;DHT22;17263;48.160;11.452;2024-01-30T08:57:03;5.60;99.90
30473;DHT22;17263;48.160;11.452;2024-01-30T08:59:30;6.00;99.90
30473;DHT22;17263;48.160;11.452;2024-01-30T09:01:56;6.00;99.90
30473;DHT22;17263;48.160;11.452;2024-01-30T09:04:25;6.00;99.90
30473;DHT22;17263;48.160;11.452;2024-01-30T09:06:51;5.90;99.90
30473;DHT22;17263;48.160;11.452;2024-01-30T09:09:17;5.80;99.90
30473;DHT22;17263;48.160;11.452;2024-01-30T09:11:43;5.70;99.90
30473;DHT22;17263;48.160;11.452;2024-01-30T09:14:09;5.70;99.90
30473;DHT22;17263;48.160;11.452;2024-01-30T09:16:36;5.60;99.90
30473;DHT22;17263;48.160;11.452;2024-01-30T09:19:02;5.70;99.90
30473;DHT22;17263;48.160;11.452;2024-01-30T09:21:28;5.90;99.90
30473;DHT22;17263;48.160;11.452;2024-01-30T09:24:02;6.20;99.90
30473;DHT22;17263;48.160;11.452;2024-01-30T09:26:31;6.30;99.90
30473;DHT22;17263;48.160;11.452;2024-01-30T09:28:57;6.40;99.90
30473;DHT22;17263;48.160;11.452;2024-01-30T09:31:23;6.40;99.90
30473;DHT22;17263;48.160;11.452;2024-01-30T09:33:49;6.30;99.90
30473;DHT22;17263;48.160;11.452;2024-01-30T09:36:17;6.30;99.90
30473;DHT22;17263;48.160;11.452;2024-01-30T09:38:44;6.30;99.90
30473;DHT22;17263;48.160;11.452;2024-01-30T09:41:10;6.40;99.90
30473;DHT22;17263;48.160;11.452;2024-01-30T09:43:38;6.40;99.90
30473;DHT22;17263;48.160;11.452;2024-01-30T09:46:05;6.50;99.90
30473;DHT22;17263;48.160;11.452;2024-01-30T09:48:32;6.50;99.90
30473;DHT22;17263;48.160;11.452;2024-01-30T09:50:59;6.70;99.90
30473;DHT22;17263;48.160;11.452;2024-01-30T09:53:25;6.80;99.90
30473;DHT22;17263;48.160;11.452;2024-01-30T09:55:52;7.00;99.90
30473;DHT22;17263;48.160;11.452;2024-01-30T09:58:18;7.10;99.90
30473;DHT22;17263;48.160;11.452;2024-01-30T10:00:44;7.10;99.90
30473;DHT22;17263;48.160;11.452;2024-01-30T10:03:10;7.00;99.90
30473;DHT22;17263;48.160;11.452;2024-01-30T10:05:36;7.10;99.90
30473;DHT22;17263;48.160;11.452;2024-01-30T10:08:08;7.00;99.90
30473;DHT22;17263;48.160;11.452;2024-01-30T10:10:34;7.10;99.90
30473;DHT22;17263;48.160;11.452;2024-01-30T10:13:02;7.20;99.90
30473;DHT22;17263;48.160;11.452;2024-01-30T10:15:28;7.10;99.90
30473;DHT22;17263;48.160;11.452;2024-01-30T10:17:55;7.10;99.90
30473;DHT22;17263;48.160;11.452;2024-01-30T10:20:21;7.10;99.90
30473;DHT22;17263;48.160;11.452;2024-01-30T10:22:49;7.30;99.90
30473;DHT22;17263;48.160;11.452;2024-01-30T10:25:15;7.30;99.90
30473;DHT22;17263;48.160;11.452;2024-01-30T10:27:41;7.30;99.90
30473;DHT22;17263;48.160;11.452;2024-01-30T10:30:08;7.50;99.90
30473;DHT22;17263;48.160;11.452;2024-01-30T10:32:34;7.60;99.90
30473;DHT22;17263;48.160;11.452;2024-01-30T10:35:00;7.80;99.90
30473;DHT22;17263;48.160;11.452;2024-01-30T10:37:26;7.90;99.90
30473;DHT22;17263;48.160;11.452;2024-01-30T10:39:53;7.90;99.90
30473;DHT22;17263;48.160;11.452;2024-01-30T10:42:26;7.90;99.90
30473;DHT22;17263;48.160;11.452;2024-01-30T10:45:06;8.00;99.90
30473;DHT22;17263;48.160;11.452;2024-01-30T10:47:37;8.00;99.90
30473;DHT22;17263;48.160;11.452;2024-01-30T10:50:04;8.10;99.90
30473;DHT22;17263;48.160;11.452;2024-01-30T10:52:32;8.10;99.90
30473;DHT22;17263;48.160;11.452;2024-01-30T10:54:58;8.30;99.90
30473;DHT22;17263;48.160;11.452;2024-01-30T10:57:27;8.50;99.90
30473;DHT22;17263;48.160;11.452;2024-01-30T10:59:57;8.50;99.90
30473;DHT22;17263;48.160;11.452;2024-01-30T11:02:24;8.60;99.90
30473;DHT22;17263;48.160;11.452;2024-01-30T11:04:56;8.60;99.90
30473;DHT22;17263;48.160;11.452;2024-01-30T11:07:26;8.70;99.90
30473;DHT22;17263;48.160;11.452;2024-01-30T11:09:59;8.70;99.90
30473;DHT22;17263;48.160;11.452;2024-01-30T11:12:27;8.80;99.90
30473;DHT22;17263;48.160;11.452;2024-01-30T11:15:10;8.90;99.90
30473;DHT22;17263;48.160;11.452;2024-01-30T11:22:50;9.40;99.90
30473;DHT22;17263;48.160;11.452;2024-01-30T11:25:17;9.50;99.90
30473;DHT22;17263;48.160;11.452;2024-01-30T11:27:45;9.50;99.90
30473;DHT22;17263;48.160;11.452;2024-01-30T11:30:29;9.70;99.90
30473;DHT22;17263;48.160;11.452;2024-01-30T11:33:12;9.80;99.90
30473;DHT22;17263;48.160;11.452;2024-01-30T11:35:39;9.80;99.90
30473;DHT22;17263;48.160;11.452;2024-01-30T11:38:06;9.90;99.90
30473;DHT22;17263;48.160;11.452;2024-01-30T11:40:34;9.90;99.90
30473;DHT22;17263;48.160;11.452;2024-01-30T11:43:01;10.00;99.90
30473;DHT22;17263;48.160;11.452;2024-01-30T11:45:28;10.10;99.90
30473;DHT22;17263;48.160;11.452;2024-01-30T11:47:54;10.20;99.90
30473;DHT22;17263;48.160;11.452;2024-01-30T11:50:20;10.30;99.90
30473;DHT22;17263;48.160;11.452;2024-01-30T11:52:47;10.40;99.90
30473;DHT22;17263;48.160;11.452;2024-01-30T11:55:14;10.50;99.90
30473;DHT22;17263;48.160;11.452;2024-01-30T11:57:41;10.60;99.90
30473;DHT22;17263;48.160;11.452;2024-01-30T12:00:14;10.70;99.90
30473;DHT22;17263;48.160;11.452;2024-01-30T12:02:41;10.80;99.90
30473;DHT22;17263;48.160;11.452;2024-01-30T12:05:08;10.90;99.90
30473;DHT22;17263;48.160;11.452;2024-01-30T12:07:35;11.00;99.90
30473;DHT22;17263;48.160;11.452;2024-01-30T12:10:02;11.00;99.90
30473;DHT22;17263;48.160;11.452;2024-01-30T12:12:29;11.00;99.90
30473;DHT22;17263;48.160;11.452;2024-01-30T12:14:56;11.00;99.90
30473;DHT22;17263;48.160;11.452;2024-01-30T12:17:33;10.90;99.90
30473;DHT22;17263;48.160;11.452;2024-01-30T12:20:11;10.80;99.90
30473;DHT22;17263;48.160;11.452;2024-01-30T12:22:42;10.80;99.90
30473;DHT22;17263;48.160;11.452;2024-01-30T12:25:09;10.70;99.90
30473;DHT22;17263;48.160;11.452;2024-01-30T12:27:36;10.70;99.90
30473;DHT22;17263;48.160;11.452;2024-01-30T12:30:09;10.70;99.90
30473;DHT22;17263;48.160;11.452;2024-01-30T12:32:39;10.70;99.90
30473;DHT22;17263;48.160;11.452;2024-01-30T12:35:14;10.70;99.90
30473;DHT22;17263;48.160;11.452;2024-01-30T12:37:40;10.70;99.90
30473;DHT22;17263;48.160;11.452;2024-01-30T12:40:11;10.80;99.90
30473;DHT22;17263;48.160;11.452;2024-01-30T12:42:39;10.90;99.90
30473;DHT22;17263;48.160;11.452;2024-01-30T12:45:05;11.00;99.00
30473;DHT22;17263;48.160;11.452;2024-01-30T12:47:32;11.00;98.60
30473;DHT22;17263;48.160;11.452;2024-01-30T12:49:58;11.10;98.40
30473;DHT22;17263;48.160;11.452;2024-01-30T12:52:24;11.10;98.00
30473;DHT22;17263;48.160;11.452;2024-01-30T12:54:51;11.20;98.00
30473;DHT22;17263;48.160;11.452;2024-01-30T12:57:17;11.20;97.70
30473;DHT22;17263;48.160;11.452;2024-01-30T12:59:44;11.30;97.70
30473;DHT22;17263;48.160;11.452;2024-01-30T13:02:11;11.30;97.50
30473;DHT22;17263;48.160;11.452;2024-01-30T13:04:38;11.30;97.40
30473;DHT22;17263;48.160;11.452;2024-01-30T13:07:04;11.50;97.10
30473;DHT22;17263;48.160;11.452;2024-01-30T13:09:30;11.50;96.90
30473;DHT22;17263;48.160;11.452;2024-01-30T13:11:59;11.60;97.00
30473;DHT22;17263;48.160;11.452;2024-01-30T13:14:28;11.60;96.90
30473;DHT22;17263;48.160;11.452;2024-01-30T13:16:54;11.70;96.60
30473;DHT22;17263;48.160;11.452;2024-01-30T13:19:20;11.70;96.60
30473;DHT22;17263;48.160;11.452;2024-01-30T13:21:46;11.70;96.10
30473;DHT22;17263;48.160;11.452;2024-01-30T13:24:14;11.70;96.40
30473;DHT22;17263;48.160;11.452;2024-01-30T13:26:40;11.60;96.60
30473;DHT22;17263;48.160;11.452;2024-01-30T13:29:08;11.60;96.90
30473;DHT22;17263;48.160;11.452;2024-01-30T13:31:34;11.60;97.30
30473;DHT22;17263;48.160;11.452;2024-01-30T13:34:00;11.60;96.80
30473;DHT22;17263;48.160;11.452;2024-01-30T13:36:26;11.50;97.00
30473;DHT22;17263;48.160;11.452;2024-01-30T13:38:52;11.40;97.30
30473;DHT22;17263;48.160;11.452;2024-01-30T13:41:18;11.30;97.20
30473;DHT22;17263;48.160;11.452;2024-01-30T13:43:44;11.30;97.40
30473;DHT22;17263;48.160;11.452;2024-01-30T13:46:10;11.20;97.70
30473;DHT22;17263;48.160;11.452;2024-01-30T13:48:36;11.20;98.10
30473;DHT22;17263;48.160;11.452;2024-01-30T13:51:02;11.30;98.60
30473;DHT22;17263;48.160;11.452;2024-01-30T13:53:28;11.20;99.00
30473;DHT22;17263;48.160;11.452;2024-01-30T13:55:55;11.10;99.30
30473;DHT22;17263;48.160;11.452;2024-01-30T13:58:21;11.00;99.90
30473;DHT22;17263;48.160;11.452;2024-01-30T14:00:47;11.00;99.90
30473;DHT22;17263;48.160;11.452;2024-01-30T14:03:13;10.90;99.90
30473;DHT22;17263;48.160;11.452;2024-01-30T14:05:39;10.90;99.90
30473;DHT22;17263;48.160;11.452;2024-01-30T14:08:06;10.90;99.90
30473;DHT22;17263;48.160;11.452;2024-01-30T14:10:33;10.80;99.90
30473;DHT22;17263;48.160;11.452;2024-01-30T14:13:00;10.80;99.90
30473;DHT22;17263;48.160;11.452;2024-01-30T14:15:26;10.70;99.90
30473;DHT22;17263;48.160;11.452;2024-01-30T14:17:52;10.60;99.90
30473;DHT22;17263;48.160;11.452;2024-01-30T14:20:18;10.50;99.90
30473;DHT22;17263;48.160;11.452;2024-01-30T14:22:45;10.40;99.90
30473;DHT22;17263;48.160;11.452;2024-01-30T14:25:11;10.40;99.90
30473;DHT22;17263;48.160;11.452;2024-01-30T14:27:38;10.30;99.90
30473;DHT22;17263;48.160;11.452;2024-01-30T14:30:04;10.30;99.90
30473;DHT22;17263;48.160;11.452;2024-01-30T14:32:30;10.20;99.90
30473;DHT22;17263;48.160;11.452;2024-01-30T14:34:56;10.20;99.90
30473;DHT22;17263;48.160;11.452;2024-01-30T14:37:22;10.20;99.90
30473;DHT22;17263;48.160;11.452;2024-01-30T14:39:49;10.10;99.90
30473;DHT22;17263;48.160;11.452;2024-01-30T14:42:16;10.10;99.90
30473;DHT22;17263;48.160;11.452;2024-01-30T14:44:42;10.10;99.90
30473;DHT22;17263;48.160;11.452;2024-01-30T14:47:08;10.10;99.90
30473;DHT22;17263;48.160;11.452;2024-01-30T14:49:34;10.00;99.90
30473;DHT22;17263;48.160;11.452;2024-01-30T14:52:00;10.00;99.90
30473;DHT22;17263;48.160;11.452;2024-01-30T14:54:27;10.00;99.90
30473;DHT22;17263;48.160;11.452;2024-01-30T14:56:53;10.00;99.90
30473;DHT22;17263;48.160;11.452;2024-01-30T14:59:19;9.90;99.90
30473;DHT22;17263;48.160;11.452;2024-01-30T15:01:45;9.90;99.90
30473;DHT22;17263;48.160;11.452;2024-01-30T15:04:12;9.90;99.90
30473;DHT22;17263;48.160;11.452;2024-01-30T15:06:38;9.90;99.90
30473;DHT22;17263;48.160;11.452;2024-01-30T15:09:08;9.90;99.90
30473;DHT22;17263;48.160;11.452;2024-01-30T15:11:34;9.80;99.90
30473;DHT22;17263;48.160;11.452;2024-01-30T15:14:01;9.70;99.90
30473;DHT22;17263;48.160;11.452;2024-01-30T15:16:27;9.60;99.90
30473;DHT22;17263;48.160;11.452;2024-01-30T15:18:54;9.60;99.90
30473;DHT22;17263;48.160;11.452;2024-01-30T15:21:20;9.50;99.90
30473;DHT22;17263;48.160;11.452;2024-01-30T15:23:46;9.50;99.90